sensor_id;sensor_type;location;lat;lon;timestamp;temperature;humidity
47791;DHT22;33547;49.044;1.156;2022-07-11T00:00:53;23.60;46.70
47791;DHT22;33547;49.044;1.156;2022-07-11T00:03:18;23.60;46.80
47791;DHT22;33547;49.044;1.156;2022-07-11T00:05:44;23.50;46.80
47791;DHT22;33547;49.044;1.156;2022-07-11T00:08:10;23.50;46.80
47791;DHT22;33547;49.044;1.156;2022-07-11T00:10:36;23.50;46.90
47791;DHT22;33547;49.044;1.156;2022-07-11T00:13:02;23.50;47.00
47791;DHT22;33547;49.044;1.156;2022-07-11T00:15:28;23.50;47.00
47791;DHT22;33547;49.044;1.156;2022-07-11T00:17:54;23.40;47.00
47791;DHT22;33547;49.044;1.156;2022-07-11T00:20:20;23.40;47.00
47791;DHT22;33547;49.044;1.156;2022-07-11T00:22:46;23.40;47.10
47791;DHT22;33547;49.044;1.156;2022-07-11T00:25:11;23.40;47.20
47791;DHT22;33547;49.044;1.156;2022-07-11T00:27:38;23.30;47.20
47791;DHT22;33547;49.044;1.156;2022-07-11T00:30:04;23.30;47.20
47791;DHT22;33547;49.044;1.156;2022-07-11T00:32:30;23.20;47.20
47791;DHT22;33547;49.044;1.156;2022-07-11T00:34:56;23.20;47.20
47791;DHT22;33547;49.044;1.156;2022-07-11T00:37:22;23.20;47.30
47791;DHT22;33547;49.044;1.156;2022-07-11T00:39:47;23.20;47.40
47791;DHT22;33547;49.044;1.156;2022-07-11T00:42:17;23.20;47.40
47791;DHT22;33547;49.044;1.156;2022-07-11T00:44:43;23.20;47.50
47791;DHT22;33547;49.044;1.156;2022-07-11T00:47:08;23.10;47.50
47791;DHT22;33547;49.044;1.156;2022-07-11T00:49:34;23.10;47.50
47791;DHT22;33547;49.044;1.156;2022-07-11T00:52:00;23.10;47.60
47791;DHT22;33547;49.044;1.156;2022-07-11T00:54:27;23.10;47.60
47791;DHT22;33547;49.044;1.156;2022-07-11T00:56:54;23.00;47.70
47791;DHT22;33547;49.044;1.156;2022-07-11T00:59:20;23.00;47.70
47791;DHT22;33547;49.044;1.156;2022-07-11T01:01:46;23.00;47.80
47791;DHT22;33547;49.044;1.156;2022-07-11T01:04:12;23.00;47.80
47791;DHT22;33547;49.044;1.156;2022-07-11T01:06:38;22.90;47.70
47791;DHT22;33547;49.044;1.156;2022-07-11T01:09:04;22.90;47.70
47791;DHT22;33547;49.044;1.156;2022-07-11T01:11:29;22.80;48.40
47791;DHT22;33547;49.044;1.156;2022-07-11T01:13:55;22.80;47.90
47791;DHT22;33547;49.044;1.156;2022-07-11T01:16:22;22.80;47.90
47791;DHT22;33547;49.044;1.156;2022-07-11T01:18:53;22.80;48.00
47791;DHT22;33547;49.044;1.156;2022-07-11T01:23:59;22.70;47.90
47791;DHT22;33547;49.044;1.156;2022-07-11T01:26:27;22.70;48.00
47791;DHT22;33547;49.044;1.156;2022-07-11T01:28:54;22.70;48.10
47791;DHT22;33547;49.044;1.156;2022-07-11T01:31:25;22.70;48.20
47791;DHT22;33547;49.044;1.156;2022-07-11T01:33:52;22.70;48.10
47791;DHT22;33547;49.044;1.156;2022-07-11T01:36:18;22.60;48.20
47791;DHT22;33547;49.044;1.156;2022-07-11T01:38:43;22.60;48.30
47791;DHT22;33547;49.044;1.156;2022-07-11T01:41:09;22.60;48.30
47791;DHT22;33547;49.044;1.156;2022-07-11T01:43:35;22.60;48.30
47791;DHT22;33547;49.044;1.156;2022-07-11T01:46:01;22.50;48.40
47791;DHT22;33547;49.044;1.156;2022-07-11T01:48:27;22.50;48.40
47791;DHT22;33547;49.044;1.156;2022-07-11T01:50:53;22.50;48.40
47791;DHT22;33547;49.044;1.156;2022-07-11T01:53:19;22.50;48.50
47791;DHT22;33547;49.044;1.156;2022-07-11T01:55:45;22.40;48.40
47791;DHT22;33547;49.044;1.156;2022-07-11T01:58:11;22.40;48.50
47791;DHT22;33547;49.044;1.156;2022-07-11T02:00:37;22.40;48.50
47791;DHT22;33547;49.044;1.156;2022-07-11T02:03:03;22.30;48.60
47791;DHT22;33547;49.044;1.156;2022-07-11T02:05:29;22.30;48.60
47791;DHT22;33547;49.044;1.156;2022-07-11T02:07:55;22.30;48.60
47791;DHT22;33547;49.044;1.156;2022-07-11T02:10:44;22.20;48.60
47791;DHT22;33547;49.044;1.156;2022-07-11T02:13:16;22.20;48.70
47791;DHT22;33547;49.044;1.156;2022-07-11T02:15:44;22.20;48.70
47791;DHT22;33547;49.044;1.156;2022-07-11T02:18:11;22.20;48.80
47791;DHT22;33547;49.044;1.156;2022-07-11T02:20:39;22.20;48.90
47791;DHT22;33547;49.044;1.156;2022-07-11T02:23:09;22.10;48.80
47791;DHT22;33547;49.044;1.156;2022-07-11T02:25:35;22.10;48.90
47791;DHT22;33547;49.044;1.156;2022-07-11T02:28:04;22.10;48.90
47791;DHT22;33547;49.044;1.156;2022-07-11T02:30:34;22.10;49.00
47791;DHT22;33547;49.044;1.156;2022-07-11T02:33:00;22.00;49.00
47791;DHT22;33547;49.044;1.156;2022-07-11T02:35:26;22.00;49.00
47791;DHT22;33547;49.044;1.156;2022-07-11T02:37:52;22.00;49.00
47791;DHT22;33547;49.044;1.156;2022-07-11T02:40:18;22.00;49.20
47791;DHT22;33547;49.044;1.156;2022-07-11T02:42:44;21.90;49.00
47791;DHT22;33547;49.044;1.156;2022-07-11T02:45:10;21.90;49.20
47791;DHT22;33547;49.044;1.156;2022-07-11T02:47:38;21.90;49.20
47791;DHT22;33547;49.044;1.156;2022-07-11T02:50:06;21.90;49.20
47791;DHT22;33547;49.044;1.156;2022-07-11T02:52:33;21.80;49.20
47791;DHT22;33547;49.044;1.156;2022-07-11T02:55:00;21.80;49.30
47791;DHT22;33547;49.044;1.156;2022-07-11T02:57:26;21.80;49.30
47791;DHT22;33547;49.044;1.156;2022-07-11T02:59:52;21.80;49.30
47791;DHT22;33547;49.044;1.156;2022-07-11T03:02:17;21.70;49.40
47791;DHT22;33547;49.044;1.156;2022-07-11T03:04:43;21.70;49.30
47791;DHT22;33547;49.044;1.156;2022-07-11T03:07:09;21.70;49.40
47791;DHT22;33547;49.044;1.156;2022-07-11T03:09:35;21.70;49.50
47791;DHT22;33547;49.044;1.156;2022-07-11T03:12:00;21.70;49.60
47791;DHT22;33547;49.044;1.156;2022-07-11T03:14:27;21.70;49.50
47791;DHT22;33547;49.044;1.156;2022-07-11T03:16:52;21.60;49.50
47791;DHT22;33547;49.044;1.156;2022-07-11T03:19:19;21.60;49.50
47791;DHT22;33547;49.044;1.156;2022-07-11T03:21:45;21.60;49.70
47791;DHT22;33547;49.044;1.156;2022-07-11T03:24:11;21.60;49.70
47791;DHT22;33547;49.044;1.156;2022-07-11T03:26:37;21.50;49.60
47791;DHT22;33547;49.044;1.156;2022-07-11T03:29:04;21.50;49.60
47791;DHT22;33547;49.044;1.156;2022-07-11T03:31:30;21.50;49.70
47791;DHT22;33547;49.044;1.156;2022-07-11T03:33:56;21.50;49.70
47791;DHT22;33547;49.044;1.156;2022-07-11T03:36:21;21.50;49.80
47791;DHT22;33547;49.044;1.156;2022-07-11T03:38:47;21.50;49.80
47791;DHT22;33547;49.044;1.156;2022-07-11T03:41:13;21.40;49.80
47791;DHT22;33547;49.044;1.156;2022-07-11T03:43:39;21.40;49.90
47791;DHT22;33547;49.044;1.156;2022-07-11T03:46:05;21.40;49.90
47791;DHT22;33547;49.044;1.156;2022-07-11T03:48:32;21.40;49.90
47791;DHT22;33547;49.044;1.156;2022-07-11T03:50:58;21.40;49.90
47791;DHT22;33547;49.044;1.156;2022-07-11T03:53:24;21.40;50.00
47791;DHT22;33547;49.044;1.156;2022-07-11T03:55:49;21.30;49.30
47791;DHT22;33547;49.044;1.156;2022-07-11T03:58:15;21.30;49.90
47791;DHT22;33547;49.044;1.156;2022-07-11T04:00:41;21.30;50.00
47791;DHT22;33547;49.044;1.156;2022-07-11T04:03:07;21.20;50.00
47791;DHT22;33547;49.044;1.156;2022-07-11T04:05:33;21.20;50.00
47791;DHT22;33547;49.044;1.156;2022-07-11T04:07:59;21.20;50.20
47791;DHT22;33547;49.044;1.156;2022-07-11T04:10:25;21.20;50.20
47791;DHT22;33547;49.044;1.156;2022-07-11T04:12:50;21.20;50.10
47791;DHT22;33547;49.044;1.156;2022-07-11T04:15:16;21.20;50.20
47791;DHT22;33547;49.044;1.156;2022-07-11T04:17:42;21.10;50.10
47791;DHT22;33547;49.044;1.156;2022-07-11T04:20:08;21.20;50.80
47791;DHT22;33547;49.044;1.156;2022-07-11T04:22:35;21.20;50.20
47791;DHT22;33547;49.044;1.156;2022-07-11T04:25:01;21.10;50.20
47791;DHT22;33547;49.044;1.156;2022-07-11T04:27:26;21.10;50.20
47791;DHT22;33547;49.044;1.156;2022-07-11T04:29:53;21.10;50.20
47791;DHT22;33547;49.044;1.156;2022-07-11T04:32:19;21.10;50.20
47791;DHT22;33547;49.044;1.156;2022-07-11T04:34:46;21.10;50.30
47791;DHT22;33547;49.044;1.156;2022-07-11T04:37:12;21.10;50.30
47791;DHT22;33547;49.044;1.156;2022-07-11T04:39:38;21.10;50.40
47791;DHT22;33547;49.044;1.156;2022-07-11T04:42:04;21.10;50.40
47791;DHT22;33547;49.044;1.156;2022-07-11T04:44:32;21.00;50.30
47791;DHT22;33547;49.044;1.156;2022-07-11T04:46:58;21.10;50.40
47791;DHT22;33547;49.044;1.156;2022-07-11T04:49:24;21.10;50.40
47791;DHT22;33547;49.044;1.156;2022-07-11T04:51:50;21.00;50.30
47791;DHT22;33547;49.044;1.156;2022-07-11T04:54:16;21.00;50.40
47791;DHT22;33547;49.044;1.156;2022-07-11T04:56:42;21.00;50.40
47791;DHT22;33547;49.044;1.156;2022-07-11T04:59:08;21.00;50.40
47791;DHT22;33547;49.044;1.156;2022-07-11T05:01:34;21.00;50.40
47791;DHT22;33547;49.044;1.156;2022-07-11T05:04:00;21.00;50.40
47791;DHT22;33547;49.044;1.156;2022-07-11T05:06:26;21.00;50.30
47791;DHT22;33547;49.044;1.156;2022-07-11T05:08:52;21.10;50.20
47791;DHT22;33547;49.044;1.156;2022-07-11T05:11:20;21.10;50.20
47791;DHT22;33547;49.044;1.156;2022-07-11T05:13:46;21.10;50.20
47791;DHT22;33547;49.044;1.156;2022-07-11T05:16:12;21.10;50.10
47791;DHT22;33547;49.044;1.156;2022-07-11T05:18:38;21.10;50.20
47791;DHT22;33547;49.044;1.156;2022-07-11T05:21:05;21.10;50.00
47791;DHT22;33547;49.044;1.156;2022-07-11T05:23:30;21.20;50.10
47791;DHT22;33547;49.044;1.156;2022-07-11T05:25:56;21.20;50.00
47791;DHT22;33547;49.044;1.156;2022-07-11T05:28:22;21.20;49.90
47791;DHT22;33547;49.044;1.156;2022-07-11T05:30:48;21.20;49.90
47791;DHT22;33547;49.044;1.156;2022-07-11T05:33:14;21.30;49.80
47791;DHT22;33547;49.044;1.156;2022-07-11T05:35:40;21.30;49.90
47791;DHT22;33547;49.044;1.156;2022-07-11T05:38:05;21.40;49.80
47791;DHT22;33547;49.044;1.156;2022-07-11T05:40:31;21.40;49.70
47791;DHT22;33547;49.044;1.156;2022-07-11T05:42:57;21.40;49.60
47791;DHT22;33547;49.044;1.156;2022-07-11T05:45:23;21.50;49.60
47791;DHT22;33547;49.044;1.156;2022-07-11T05:47:48;21.60;50.40
47791;DHT22;33547;49.044;1.156;2022-07-11T05:50:14;21.60;49.80
47791;DHT22;33547;49.044;1.156;2022-07-11T05:52:40;21.60;49.50
47791;DHT22;33547;49.044;1.156;2022-07-11T05:55:06;21.70;49.50
47791;DHT22;33547;49.044;1.156;2022-07-11T05:57:32;21.80;49.40
47791;DHT22;33547;49.044;1.156;2022-07-11T05:59:58;21.80;49.30
47791;DHT22;33547;49.044;1.156;2022-07-11T06:02:24;21.90;49.20
47791;DHT22;33547;49.044;1.156;2022-07-11T06:04:50;22.00;49.00
47791;DHT22;33547;49.044;1.156;2022-07-11T06:07:15;22.10;48.90
47791;DHT22;33547;49.044;1.156;2022-07-11T06:10:01;22.20;48.70
47791;DHT22;33547;49.044;1.156;2022-07-11T06:12:27;22.30;48.50
47791;DHT22;33547;49.044;1.156;2022-07-11T06:14:53;22.40;48.40
47791;DHT22;33547;49.044;1.156;2022-07-11T06:17:19;22.50;48.10
47791;DHT22;33547;49.044;1.156;2022-07-11T06:19:45;22.60;47.90
47791;DHT22;33547;49.044;1.156;2022-07-11T06:22:11;22.70;47.70
47791;DHT22;33547;49.044;1.156;2022-07-11T06:24:37;22.90;47.50
47791;DHT22;33547;49.044;1.156;2022-07-11T06:27:03;23.00;47.30
47791;DHT22;33547;49.044;1.156;2022-07-11T06:29:30;23.10;47.10
47791;DHT22;33547;49.044;1.156;2022-07-11T06:31:56;23.30;46.90
47791;DHT22;33547;49.044;1.156;2022-07-11T06:34:21;23.40;46.70
47791;DHT22;33547;49.044;1.156;2022-07-11T06:36:47;23.50;46.50
47791;DHT22;33547;49.044;1.156;2022-07-11T06:39:13;23.70;46.30
47791;DHT22;33547;49.044;1.156;2022-07-11T06:41:39;23.80;46.00
47791;DHT22;33547;49.044;1.156;2022-07-11T06:44:05;24.00;45.80
47791;DHT22;33547;49.044;1.156;2022-07-11T06:46:31;24.10;45.50
47791;DHT22;33547;49.044;1.156;2022-07-11T06:48:57;24.30;45.40
47791;DHT22;33547;49.044;1.156;2022-07-11T06:51:22;24.40;45.20
47791;DHT22;33547;49.044;1.156;2022-07-11T06:53:48;24.60;44.90
47791;DHT22;33547;49.044;1.156;2022-07-11T06:56:14;24.80;44.70
47791;DHT22;33547;49.044;1.156;2022-07-11T06:58:40;24.90;44.40
47791;DHT22;33547;49.044;1.156;2022-07-11T07:01:06;25.10;44.20
47791;DHT22;33547;49.044;1.156;2022-07-11T07:03:33;25.30;44.00
47791;DHT22;33547;49.044;1.156;2022-07-11T07:06:01;25.40;43.80
47791;DHT22;33547;49.044;1.156;2022-07-11T07:08:28;25.60;43.60
47791;DHT22;33547;49.044;1.156;2022-07-11T07:10:55;25.80;43.50
47791;DHT22;33547;49.044;1.156;2022-07-11T07:13:21;26.00;43.20
47791;DHT22;33547;49.044;1.156;2022-07-11T07:15:54;26.20;43.00
47791;DHT22;33547;49.044;1.156;2022-07-11T07:18:21;26.40;42.80
47791;DHT22;33547;49.044;1.156;2022-07-11T07:20:47;26.50;42.60
47791;DHT22;33547;49.044;1.156;2022-07-11T07:23:13;26.70;42.40
47791;DHT22;33547;49.044;1.156;2022-07-11T07:25:39;26.90;42.20
47791;DHT22;33547;49.044;1.156;2022-07-11T07:28:05;27.10;42.00
47791;DHT22;33547;49.044;1.156;2022-07-11T07:30:32;27.30;41.90
47791;DHT22;33547;49.044;1.156;2022-07-11T07:32:58;27.50;41.70
47791;DHT22;33547;49.044;1.156;2022-07-11T07:35:25;27.70;41.50
47791;DHT22;33547;49.044;1.156;2022-07-11T07:37:51;27.80;41.20
47791;DHT22;33547;49.044;1.156;2022-07-11T07:40:17;28.00;41.10
47791;DHT22;33547;49.044;1.156;2022-07-11T07:42:42;28.20;40.90
47791;DHT22;33547;49.044;1.156;2022-07-11T07:45:09;28.40;40.70
47791;DHT22;33547;49.044;1.156;2022-07-11T07:47:35;28.60;40.60
47791;DHT22;33547;49.044;1.156;2022-07-11T07:50:02;28.70;40.40
47791;DHT22;33547;49.044;1.156;2022-07-11T07:52:29;29.00;40.30
47791;DHT22;33547;49.044;1.156;2022-07-11T07:54:55;29.20;40.10
47791;DHT22;33547;49.044;1.156;2022-07-11T07:57:21;29.30;39.90
47791;DHT22;33547;49.044;1.156;2022-07-11T07:59:46;29.50;39.70
47791;DHT22;33547;49.044;1.156;2022-07-11T08:02:12;29.70;39.60
47791;DHT22;33547;49.044;1.156;2022-07-11T08:04:38;29.90;39.50
47791;DHT22;33547;49.044;1.156;2022-07-11T08:07:04;30.10;39.40
47791;DHT22;33547;49.044;1.156;2022-07-11T08:09:30;30.20;39.10
47791;DHT22;33547;49.044;1.156;2022-07-11T08:11:56;30.40;39.00
47791;DHT22;33547;49.044;1.156;2022-07-11T08:14:21;30.50;38.80
47791;DHT22;33547;49.044;1.156;2022-07-11T08:16:48;30.70;38.60
47791;DHT22;33547;49.044;1.156;2022-07-11T08:19:15;30.90;38.40
47791;DHT22;33547;49.044;1.156;2022-07-11T08:21:41;31.10;38.40
47791;DHT22;33547;49.044;1.156;2022-07-11T08:24:07;31.30;38.20
47791;DHT22;33547;49.044;1.156;2022-07-11T08:26:33;31.40;38.10
47791;DHT22;33547;49.044;1.156;2022-07-11T08:29:02;31.60;37.90
47791;DHT22;33547;49.044;1.156;2022-07-11T08:31:29;31.80;37.80
47791;DHT22;33547;49.044;1.156;2022-07-11T08:33:56;32.00;37.60
47791;DHT22;33547;49.044;1.156;2022-07-11T08:36:24;32.20;37.40
47791;DHT22;33547;49.044;1.156;2022-07-11T08:38:50;32.30;37.40
47791;DHT22;33547;49.044;1.156;2022-07-11T08:41:16;32.50;37.10
47791;DHT22;33547;49.044;1.156;2022-07-11T08:43:44;32.70;37.10
47791;DHT22;33547;49.044;1.156;2022-07-11T08:46:12;32.90;36.90
47791;DHT22;33547;49.044;1.156;2022-07-11T08:48:40;33.00;36.70
47791;DHT22;33547;49.044;1.156;2022-07-11T08:51:07;33.20;36.60
47791;DHT22;33547;49.044;1.156;2022-07-11T08:53:39;33.40;36.50
47791;DHT22;33547;49.044;1.156;2022-07-11T08:56:10;33.50;36.30
47791;DHT22;33547;49.044;1.156;2022-07-11T08:58:44;33.70;36.20
47791;DHT22;33547;49.044;1.156;2022-07-11T09:01:12;33.90;36.10
47791;DHT22;33547;49.044;1.156;2022-07-11T09:03:41;34.10;36.10
47791;DHT22;33547;49.044;1.156;2022-07-11T09:06:07;34.20;35.80
47791;DHT22;33547;49.044;1.156;2022-07-11T09:08:33;34.40;35.80
47791;DHT22;33547;49.044;1.156;2022-07-11T09:10:59;34.50;35.60
47791;DHT22;33547;49.044;1.156;2022-07-11T09:13:29;34.70;35.60
47791;DHT22;33547;49.044;1.156;2022-07-11T09:16:07;34.90;35.50
47791;DHT22;33547;49.044;1.156;2022-07-11T09:18:38;35.00;35.30
47791;DHT22;33547;49.044;1.156;2022-07-11T09:21:14;35.20;35.20
47791;DHT22;33547;49.044;1.156;2022-07-11T09:24:02;35.30;35.10
47791;DHT22;33547;49.044;1.156;2022-07-11T09:26:48;35.50;35.00
47791;DHT22;33547;49.044;1.156;2022-07-11T09:29:18;35.70;34.90
47791;DHT22;33547;49.044;1.156;2022-07-11T09:31:46;35.90;34.80
47791;DHT22;33547;49.044;1.156;2022-07-11T09:34:15;36.00;34.70
47791;DHT22;33547;49.044;1.156;2022-07-11T09:36:46;36.10;34.50
47791;DHT22;33547;49.044;1.156;2022-07-11T09:39:15;36.30;34.50
47791;DHT22;33547;49.044;1.156;2022-07-11T09:41:46;36.40;34.40
47791;DHT22;33547;49.044;1.156;2022-07-11T09:46:45;36.80;34.40
47791;DHT22;33547;49.044;1.156;2022-07-11T09:49:13;36.90;34.20
47791;DHT22;33547;49.044;1.156;2022-07-11T09:51:40;37.10;34.20
47791;DHT22;33547;49.044;1.156;2022-07-11T09:54:07;37.20;34.10
47791;DHT22;33547;49.044;1.156;2022-07-11T09:56:44;37.30;34.00
47791;DHT22;33547;49.044;1.156;2022-07-11T09:59:17;37.40;34.00
47791;DHT22;33547;49.044;1.156;2022-07-11T10:01:44;37.60;33.90
47791;DHT22;33547;49.044;1.156;2022-07-11T10:04:10;37.70;33.80
47791;DHT22;33547;49.044;1.156;2022-07-11T10:06:37;37.80;33.70
47791;DHT22;33547;49.044;1.156;2022-07-11T10:09:05;38.00;33.70
47791;DHT22;33547;49.044;1.156;2022-07-11T10:11:32;38.10;33.70
47791;DHT22;33547;49.044;1.156;2022-07-11T10:14:00;38.20;33.60
47791;DHT22;33547;49.044;1.156;2022-07-11T10:16:52;38.30;33.50
47791;DHT22;33547;49.044;1.156;2022-07-11T10:19:30;38.40;33.50
47791;DHT22;33547;49.044;1.156;2022-07-11T10:25:04;38.70;33.40
47791;DHT22;33547;49.044;1.156;2022-07-11T10:33:15;39.10;33.20
47791;DHT22;33547;49.044;1.156;2022-07-11T10:35:47;39.20;33.20
47791;DHT22;33547;49.044;1.156;2022-07-11T10:38:15;39.20;33.10
47791;DHT22;33547;49.044;1.156;2022-07-11T10:40:54;39.30;33.00
47791;DHT22;33547;49.044;1.156;2022-07-11T10:46:05;39.50;33.00
47791;DHT22;33547;49.044;1.156;2022-07-11T10:49:21;39.60;33.00
47791;DHT22;33547;49.044;1.156;2022-07-11T10:57:53;39.90;32.90
47791;DHT22;33547;49.044;1.156;2022-07-11T11:00:31;40.00;32.80
47791;DHT22;33547;49.044;1.156;2022-07-11T11:03:03;40.10;32.80
47791;DHT22;33547;49.044;1.156;2022-07-11T11:05:52;40.20;32.70
47791;DHT22;33547;49.044;1.156;2022-07-11T11:11:04;40.30;32.70
47791;DHT22;33547;49.044;1.156;2022-07-11T11:13:33;40.50;32.70
47791;DHT22;33547;49.044;1.156;2022-07-11T11:16:18;40.50;32.60
47791;DHT22;33547;49.044;1.156;2022-07-11T11:18:46;40.60;32.70
47791;DHT22;33547;49.044;1.156;2022-07-11T11:21:12;40.70;32.60
47791;DHT22;33547;49.044;1.156;2022-07-11T11:23:43;40.80;32.60
47791;DHT22;33547;49.044;1.156;2022-07-11T11:29:21;40.90;32.50
47791;DHT22;33547;49.044;1.156;2022-07-11T11:31:52;41.00;32.60
47791;DHT22;33547;49.044;1.156;2022-07-11T11:34:27;41.10;32.50
47791;DHT22;33547;49.044;1.156;2022-07-11T11:36:55;41.10;32.50
47791;DHT22;33547;49.044;1.156;2022-07-11T11:39:33;41.20;32.50
47791;DHT22;33547;49.044;1.156;2022-07-11T11:42:08;40.70;27.80
47791;DHT22;33547;49.044;1.156;2022-07-11T11:44:58;40.10;28.20
47791;DHT22;33547;49.044;1.156;2022-07-11T11:47:29;39.50;27.90
47791;DHT22;33547;49.044;1.156;2022-07-11T11:49:56;39.10;28.10
47791;DHT22;33547;49.044;1.156;2022-07-11T11:52:22;38.80;28.60
47791;DHT22;33547;49.044;1.156;2022-07-11T11:54:57;38.60;29.00
47791;DHT22;33547;49.044;1.156;2022-07-11T11:57:26;38.50;28.70
47791;DHT22;33547;49.044;1.156;2022-07-11T11:59:53;38.40;28.80
47791;DHT22;33547;49.044;1.156;2022-07-11T12:02:37;38.20;29.00
47791;DHT22;33547;49.044;1.156;2022-07-11T12:05:07;38.00;29.00
47791;DHT22;33547;49.044;1.156;2022-07-11T12:07:33;37.90;29.00
47791;DHT22;33547;49.044;1.156;2022-07-11T12:09:59;37.70;29.60
47791;DHT22;33547;49.044;1.156;2022-07-11T12:12:29;37.60;29.60
47791;DHT22;33547;49.044;1.156;2022-07-11T12:15:27;37.70;30.00
47791;DHT22;33547;49.044;1.156;2022-07-11T12:18:01;37.60;29.60
47791;DHT22;33547;49.044;1.156;2022-07-11T12:20:43;37.60;29.70
47791;DHT22;33547;49.044;1.156;2022-07-11T12:23:11;37.70;29.70
47791;DHT22;33547;49.044;1.156;2022-07-11T12:25:38;37.50;29.20
47791;DHT22;33547;49.044;1.156;2022-07-11T12:28:04;37.50;29.40
47791;DHT22;33547;49.044;1.156;2022-07-11T12:30:33;37.20;29.80
47791;DHT22;33547;49.044;1.156;2022-07-11T12:33:04;37.20;29.90
47791;DHT22;33547;49.044;1.156;2022-07-11T12:36:01;37.20;29.70
47791;DHT22;33547;49.044;1.156;2022-07-11T12:38:52;37.00;30.40
47791;DHT22;33547;49.044;1.156;2022-07-11T12:41:18;36.90;29.60
47791;DHT22;33547;49.044;1.156;2022-07-11T12:43:48;36.70;29.70
47791;DHT22;33547;49.044;1.156;2022-07-11T12:46:38;36.80;30.10
47791;DHT22;33547;49.044;1.156;2022-07-11T12:49:05;36.70;30.20
47791;DHT22;33547;49.044;1.156;2022-07-11T12:51:35;36.60;30.40
47791;DHT22;33547;49.044;1.156;2022-07-11T12:56:36;36.40;30.20
47791;DHT22;33547;49.044;1.156;2022-07-11T12:59:03;36.50;30.30
47791;DHT22;33547;49.044;1.156;2022-07-11T13:01:30;36.50;30.00
47791;DHT22;33547;49.044;1.156;2022-07-11T13:03:57;36.40;30.30
47791;DHT22;33547;49.044;1.156;2022-07-11T13:06:23;36.30;30.20
47791;DHT22;33547;49.044;1.156;2022-07-11T13:09:09;36.10;30.30
47791;DHT22;33547;49.044;1.156;2022-07-11T13:11:35;35.90;30.30
47791;DHT22;33547;49.044;1.156;2022-07-11T13:14:01;35.90;30.50
47791;DHT22;33547;49.044;1.156;2022-07-11T13:16:27;36.00;30.70
47791;DHT22;33547;49.044;1.156;2022-07-11T13:18:53;36.00;31.10
47791;DHT22;33547;49.044;1.156;2022-07-11T13:21:20;36.00;30.60
47791;DHT22;33547;49.044;1.156;2022-07-11T13:23:46;36.00;30.30
47791;DHT22;33547;49.044;1.156;2022-07-11T13:26:12;35.90;30.80
47791;DHT22;33547;49.044;1.156;2022-07-11T13:28:38;35.70;30.70
47791;DHT22;33547;49.044;1.156;2022-07-11T13:31:05;35.60;30.50
47791;DHT22;33547;49.044;1.156;2022-07-11T13:33:31;35.70;30.90
47791;DHT22;33547;49.044;1.156;2022-07-11T13:35:58;35.70;31.10
47791;DHT22;33547;49.044;1.156;2022-07-11T13:38:24;35.90;31.00
47791;DHT22;33547;49.044;1.156;2022-07-11T13:40:50;35.80;30.60
47791;DHT22;33547;49.044;1.156;2022-07-11T13:43:16;36.00;30.50
47791;DHT22;33547;49.044;1.156;2022-07-11T13:45:42;36.00;30.60
47791;DHT22;33547;49.044;1.156;2022-07-11T13:48:10;35.70;30.10
47791;DHT22;33547;49.044;1.156;2022-07-11T13:50:35;35.70;30.80
47791;DHT22;33547;49.044;1.156;2022-07-11T13:53:02;35.70;31.30
47791;DHT22;33547;49.044;1.156;2022-07-11T13:55:28;35.70;30.90
47791;DHT22;33547;49.044;1.156;2022-07-11T13:57:56;35.90;30.70
47791;DHT22;33547;49.044;1.156;2022-07-11T14:00:23;35.70;30.10
47791;DHT22;33547;49.044;1.156;2022-07-11T14:02:50;35.70;30.10
47791;DHT22;33547;49.044;1.156;2022-07-11T14:05:17;35.60;30.70
47791;DHT22;33547;49.044;1.156;2022-07-11T14:07:47;35.60;30.20
47791;DHT22;33547;49.044;1.156;2022-07-11T14:10:13;35.50;30.60
47791;DHT22;33547;49.044;1.156;2022-07-11T14:12:41;35.60;30.10
47791;DHT22;33547;49.044;1.156;2022-07-11T14:15:07;35.50;30.10
47791;DHT22;33547;49.044;1.156;2022-07-11T14:17:36;35.20;30.20
47791;DHT22;33547;49.044;1.156;2022-07-11T14:20:02;35.40;30.40
47791;DHT22;33547;49.044;1.156;2022-07-11T14:22:29;35.30;31.20
47791;DHT22;33547;49.044;1.156;2022-07-11T14:24:56;35.20;30.60
47791;DHT22;33547;49.044;1.156;2022-07-11T14:27:22;35.20;30.70
47791;DHT22;33547;49.044;1.156;2022-07-11T14:29:48;35.20;30.70
47791;DHT22;33547;49.044;1.156;2022-07-11T14:32:14;35.30;30.30
47791;DHT22;33547;49.044;1.156;2022-07-11T14:34:40;35.30;30.20
47791;DHT22;33547;49.044;1.156;2022-07-11T14:37:06;35.30;30.20
47791;DHT22;33547;49.044;1.156;2022-07-11T14:39:32;35.30;30.80
47791;DHT22;33547;49.044;1.156;2022-07-11T14:42:00;35.30;30.20
47791;DHT22;33547;49.044;1.156;2022-07-11T14:44:27;35.40;29.80
47791;DHT22;33547;49.044;1.156;2022-07-11T14:46:53;35.20;30.00
47791;DHT22;33547;49.044;1.156;2022-07-11T14:49:19;35.30;30.00
47791;DHT22;33547;49.044;1.156;2022-07-11T14:51:45;35.20;30.00
47791;DHT22;33547;49.044;1.156;2022-07-11T14:54:11;35.20;30.10
47791;DHT22;33547;49.044;1.156;2022-07-11T14:56:38;34.60;30.90
47791;DHT22;33547;49.044;1.156;2022-07-11T14:59:04;34.70;31.40
47791;DHT22;33547;49.044;1.156;2022-07-11T15:01:31;35.10;31.30
47791;DHT22;33547;49.044;1.156;2022-07-11T15:03:58;35.10;30.70
47791;DHT22;33547;49.044;1.156;2022-07-11T15:06:24;35.10;30.90
47791;DHT22;33547;49.044;1.156;2022-07-11T15:09:10;35.10;30.40
47791;DHT22;33547;49.044;1.156;2022-07-11T15:11:54;35.10;30.30
47791;DHT22;33547;49.044;1.156;2022-07-11T15:14:39;34.80;30.20
47791;DHT22;33547;49.044;1.156;2022-07-11T15:17:05;34.70;30.30
47791;DHT22;33547;49.044;1.156;2022-07-11T15:19:31;34.70;30.00
47791;DHT22;33547;49.044;1.156;2022-07-11T15:21:56;34.40;30.00
47791;DHT22;33547;49.044;1.156;2022-07-11T15:24:22;34.50;30.00
47791;DHT22;33547;49.044;1.156;2022-07-11T15:26:48;34.30;30.60
47791;DHT22;33547;49.044;1.156;2022-07-11T15:29:14;34.20;30.30
47791;DHT22;33547;49.044;1.156;2022-07-11T15:31:40;34.10;31.00
47791;DHT22;33547;49.044;1.156;2022-07-11T15:34:06;34.20;30.60
47791;DHT22;33547;49.044;1.156;2022-07-11T15:36:31;34.20;32.10
47791;DHT22;33547;49.044;1.156;2022-07-11T15:38:57;34.30;31.00
47791;DHT22;33547;49.044;1.156;2022-07-11T15:41:23;34.20;31.30
47791;DHT22;33547;49.044;1.156;2022-07-11T15:43:49;34.00;32.80
47791;DHT22;33547;49.044;1.156;2022-07-11T15:46:16;33.90;33.40
47791;DHT22;33547;49.044;1.156;2022-07-11T15:48:42;33.90;31.50
47791;DHT22;33547;49.044;1.156;2022-07-11T15:51:08;33.70;31.60
47791;DHT22;33547;49.044;1.156;2022-07-11T15:53:34;33.70;31.80
47791;DHT22;33547;49.044;1.156;2022-07-11T15:56:03;33.50;31.80
47791;DHT22;33547;49.044;1.156;2022-07-11T15:58:30;33.40;32.50
47791;DHT22;33547;49.044;1.156;2022-07-11T16:01:00;33.30;31.80
47791;DHT22;33547;49.044;1.156;2022-07-11T16:03:27;33.20;31.90
47791;DHT22;33547;49.044;1.156;2022-07-11T16:05:55;33.20;32.10